createdAt,value
2018-02-11T00:00:36.648Z,13.43
2018-02-11T00:01:39.867Z,15.55
2018-02-11T00:02:43.077Z,14.13
2018-02-11T00:03:46.293Z,13.75
2018-02-11T00:04:49.517Z,14.48
2018-02-11T00:05:52.746Z,13.82
2018-02-11T00:06:55.965Z,14.25
2018-02-11T00:07:59.957Z,12.57
2018-02-11T00:09:03.935Z,14.98
2018-02-11T00:10:07.155Z,15.98
2018-02-11T00:11:11.137Z,14.95
2018-02-11T00:12:14.368Z,15.00
2018-02-11T00:13:17.582Z,14.10
2018-02-11T00:14:20.813Z,13.77
2018-02-11T00:15:24.042Z,13.62
2018-02-11T00:16:27.254Z,14.13
2018-02-11T00:17:31.232Z,13.95
2018-02-11T00:18:34.463Z,13.15
2018-02-11T00:19:37.682Z,14.05
2018-02-11T00:20:40.910Z,13.50
2018-02-11T00:21:44.902Z,13.25
2018-02-11T00:22:48.897Z,13.35
2018-02-11T00:23:52.097Z,13.43
2018-02-11T00:24:55.381Z,13.80
2018-02-11T00:25:58.615Z,14.05
2018-02-11T00:27:01.861Z,14.18
2018-02-11T00:28:05.079Z,14.57
2018-02-11T00:29:08.296Z,15.93
2018-02-11T00:30:12.304Z,13.15
2018-02-11T00:31:16.297Z,13.93
2018-02-11T00:32:20.292Z,14.35
2018-02-11T00:33:23.520Z,14.38
2018-02-11T00:34:26.751Z,15.02
2018-02-11T00:35:30.755Z,14.68
2018-02-11T00:36:34.740Z,15.15
2018-02-11T00:37:43.769Z,14.07
2018-02-11T00:38:46.988Z,14.45
2018-02-11T00:39:50.221Z,13.98
2018-02-11T00:40:53.460Z,14.00
2018-02-11T00:41:57.452Z,14.40
2018-02-11T00:43:00.656Z,14.40
2018-02-11T00:44:03.880Z,13.85
2018-02-11T00:45:07.093Z,13.90
2018-02-11T00:46:11.081Z,14.30
2018-02-11T00:47:15.092Z,14.07
2018-02-11T00:48:19.072Z,13.05
2018-02-11T00:49:22.293Z,15.18
2018-02-11T00:50:25.530Z,14.30
2018-02-11T00:51:28.738Z,13.20
2018-02-11T00:52:31.991Z,15.63
2018-02-11T00:53:35.991Z,14.23
2018-02-11T00:54:39.204Z,15.00
2018-02-11T00:55:42.419Z,15.20
2018-02-11T00:56:45.678Z,15.55
2018-02-11T00:57:48.963Z,13.40
2018-02-11T00:58:52.168Z,13.13
2018-02-11T00:59:55.446Z,12.88
2018-02-11T01:00:58.653Z,13.00
2018-02-11T01:02:01.870Z,13.85
2018-02-11T01:03:05.860Z,14.93
2018-02-11T01:04:09.852Z,13.48
2018-02-11T01:05:13.102Z,13.98
2018-02-11T01:06:16.313Z,13.55
2018-02-11T01:07:19.535Z,14.30
2018-02-11T01:08:22.764Z,13.73
2018-02-11T01:09:26.001Z,13.50
2018-02-11T01:10:29.284Z,12.95
2018-02-11T01:11:32.522Z,12.82
2018-02-11T01:12:35.757Z,14.50
2018-02-11T01:13:38.987Z,14.10
2018-02-11T01:14:42.200Z,14.43
2018-02-11T01:15:46.190Z,13.65
2018-02-11T01:16:50.179Z,14.48
2018-02-11T01:17:53.412Z,13.90
2018-02-11T01:18:56.630Z,13.62
2018-02-11T01:19:59.843Z,13.35
2018-02-11T01:21:03.853Z,12.27
2018-02-11T01:22:07.119Z,14.45
2018-02-11T01:23:10.344Z,12.95
2018-02-11T01:24:13.618Z,13.52
2018-02-11T01:25:16.877Z,12.32
2018-02-11T01:26:20.086Z,13.98
2018-02-11T01:27:23.416Z,14.20
2018-02-11T01:28:26.706Z,13.55
2018-02-11T01:29:29.929Z,13.23
2018-02-11T01:30:33.156Z,12.70
2018-02-11T01:31:36.445Z,12.27
2018-02-11T01:32:39.669Z,13.13
2018-02-11T01:33:42.900Z,12.50
2018-02-11T01:34:46.125Z,13.15
2018-02-11T01:35:49.405Z,13.13
2018-02-11T01:36:52.615Z,13.50
2018-02-11T01:37:55.844Z,12.90
2018-02-11T01:38:59.090Z,14.10
2018-02-11T01:40:02.322Z,12.88
2018-02-11T01:41:05.562Z,13.23
2018-02-11T01:42:08.770Z,12.95
2018-02-11T01:43:13.438Z,13.10
2018-02-11T01:44:16.660Z,12.80
2018-02-11T01:45:20.651Z,13.10
2018-02-11T01:46:24.700Z,12.25
2018-02-11T01:47:27.943Z,11.77
2018-02-11T01:48:31.943Z,12.32
2018-02-11T01:49:35.941Z,12.65
2018-02-11T01:50:39.944Z,10.75
2018-02-11T01:51:43.944Z,13.05
2018-02-11T01:52:47.938Z,12.50
2018-02-11T01:53:51.927Z,12.73
2018-02-11T01:54:55.149Z,11.88
2018-02-11T01:55:58.474Z,12.40
2018-02-11T01:57:01.666Z,12.63
2018-02-11T01:58:04.876Z,11.75
2018-02-11T01:59:08.868Z,12.57
2018-02-11T02:00:12.860Z,12.75
2018-02-11T02:01:16.075Z,11.95
2018-02-11T02:02:19.338Z,10.93
2018-02-11T02:03:23.334Z,11.70
2018-02-11T02:04:26.561Z,13.40
2018-02-11T02:05:29.928Z,12.18
2018-02-11T02:06:33.208Z,13.45
2018-02-11T02:07:36.452Z,11.75
2018-02-11T02:08:39.704Z,12.30
2018-02-11T02:09:42.957Z,10.60
2018-02-11T02:10:46.188Z,12.88
2018-02-11T02:11:49.392Z,12.52
2018-02-11T02:12:52.713Z,12.32
2018-02-11T02:13:55.945Z,12.70
2018-02-11T02:14:59.174Z,11.68
2018-02-11T02:16:02.403Z,12.57
2018-02-11T02:17:05.637Z,10.70
2018-02-11T02:18:08.848Z,12.23
2018-02-11T02:19:12.060Z,12.32
2018-02-11T02:20:15.292Z,11.65
2018-02-11T02:21:18.521Z,11.88
2018-02-11T02:22:21.746Z,13.38
2018-02-11T02:23:25.728Z,11.38
2018-02-11T02:24:28.949Z,11.85
2018-02-11T02:25:32.170Z,11.45
2018-02-11T02:26:35.492Z,11.10
2018-02-11T02:27:39.484Z,11.93
2018-02-11T02:28:43.475Z,12.23
2018-02-11T02:29:46.688Z,11.02
2018-02-11T02:30:49.904Z,11.65
2018-02-11T02:31:53.159Z,10.95
2018-02-11T02:32:56.374Z,11.73
2018-02-11T02:33:59.606Z,10.68
2018-02-11T02:35:03.580Z,11.23
2018-02-11T02:36:06.792Z,11.30
2018-02-11T02:37:10.059Z,11.50
2018-02-11T02:38:14.052Z,11.77
2018-02-11T02:39:17.272Z,11.05
2018-02-11T02:40:20.523Z,11.65
2018-02-11T02:41:24.537Z,11.77
2018-02-11T02:42:28.553Z,11.75
2018-02-11T02:43:32.516Z,10.70
2018-02-11T02:44:35.742Z,10.77
2018-02-11T02:45:38.967Z,10.90
2018-02-11T02:46:42.180Z,11.27
2018-02-11T02:47:46.170Z,11.27
2018-02-11T02:48:49.422Z,12.65
2018-02-11T02:49:52.639Z,12.55
2018-02-11T02:50:56.623Z,13.60
2018-02-11T02:51:59.846Z,15.48
2018-02-11T02:53:03.070Z,12.20
2018-02-11T02:54:06.413Z,11.65
2018-02-11T02:55:09.627Z,13.30
2018-02-11T02:56:12.867Z,11.68
2018-02-11T02:57:16.859Z,11.48
2018-02-11T02:58:20.877Z,11.75
2018-02-11T02:59:24.864Z,11.85
2018-02-11T03:00:28.851Z,12.57
2018-02-11T03:01:32.271Z,11.75
2018-02-11T03:02:35.489Z,12.15
2018-02-11T03:03:38.728Z,11.10
2018-02-11T03:04:42.709Z,11.23
2018-02-11T03:05:46.711Z,12.25
2018-02-11T03:06:50.685Z,12.13
2018-02-11T03:07:53.900Z,11.10
2018-02-11T03:08:57.970Z,11.52
2018-02-11T03:10:01.143Z,11.35
2018-02-11T03:11:04.360Z,12.82
2018-02-11T03:12:08.336Z,12.23
2018-02-11T03:13:11.558Z,11.02
2018-02-11T03:14:15.550Z,11.10
2018-02-11T03:15:19.535Z,11.40
2018-02-11T03:16:22.797Z,12.52
2018-02-11T03:17:26.020Z,12.05
2018-02-11T03:18:30.012Z,11.30
2018-02-11T03:19:33.995Z,10.18
2018-02-11T03:20:37.202Z,11.45
2018-02-11T03:21:41.194Z,11.10
2018-02-11T03:22:45.217Z,10.88
2018-02-11T03:23:48.444Z,12.32
2018-02-11T03:24:51.666Z,11.73
2018-02-11T03:25:55.635Z,11.80
2018-02-11T03:26:58.874Z,11.05
2018-02-11T03:28:02.106Z,11.55
2018-02-11T03:29:05.334Z,12.68
2018-02-11T03:30:08.569Z,12.30
2018-02-11T03:31:11.798Z,11.63
2018-02-11T03:32:15.034Z,12.43
2018-02-11T03:33:18.352Z,12.43
2018-02-11T03:34:22.339Z,11.85
2018-02-11T03:35:26.415Z,12.77
2018-02-11T03:36:29.613Z,12.15
2018-02-11T03:37:32.823Z,11.82
2018-02-11T03:38:36.851Z,11.60
2018-02-11T03:39:40.123Z,12.35
2018-02-11T03:40:43.356Z,12.20
2018-02-11T03:41:46.560Z,11.40
2018-02-11T03:42:50.550Z,11.95
2018-02-11T03:43:55.297Z,12.35
2018-02-11T03:44:58.632Z,12.30
2018-02-11T03:46:01.831Z,11.50
2018-02-11T03:47:05.048Z,12.35
2018-02-11T03:48:08.262Z,11.40
2018-02-11T03:49:11.484Z,12.02
2018-02-11T03:50:14.709Z,13.25
2018-02-11T03:51:17.972Z,11.25
2018-02-11T03:52:21.202Z,11.80
2018-02-11T03:53:24.418Z,13.00
2018-02-11T03:54:28.403Z,11.82
2018-02-11T03:55:31.620Z,12.55
2018-02-11T03:56:34.839Z,11.15
2018-02-11T03:57:38.048Z,12.30
2018-02-11T03:58:41.277Z,12.55
2018-02-11T03:59:45.260Z,11.30
2018-02-11T04:00:49.240Z,10.40
2018-02-11T04:01:52.462Z,11.75
2018-02-11T04:02:55.681Z,12.82
2018-02-11T04:03:58.923Z,12.18
2018-02-11T04:05:02.176Z,11.93
2018-02-11T04:06:05.395Z,12.23
2018-02-11T04:07:08.596Z,10.88
2018-02-11T04:08:11.826Z,12.77
2018-02-11T04:09:15.036Z,11.57
2018-02-11T04:10:18.253Z,12.70
2018-02-11T04:11:21.478Z,11.95
2018-02-11T04:12:25.475Z,13.15
2018-02-11T04:13:28.687Z,13.10
2018-02-11T04:14:31.917Z,10.85
2018-02-11T04:15:35.147Z,11.05
2018-02-11T04:16:38.362Z,12.13
2018-02-11T04:17:41.663Z,11.95
2018-02-11T04:18:44.849Z,11.40
2018-02-11T04:19:48.052Z,10.88
2018-02-11T04:20:52.035Z,11.23
2018-02-11T04:21:55.249Z,10.80
2018-02-11T04:22:59.228Z,11.45
2018-02-11T04:24:02.475Z,12.35
2018-02-11T04:25:05.686Z,11.15
2018-02-11T04:26:08.943Z,11.60
2018-02-11T04:27:12.166Z,11.63
2018-02-11T04:28:15.394Z,13.85
2018-02-11T04:29:18.607Z,11.38
2018-02-11T04:30:21.833Z,12.15
2018-02-11T04:31:25.048Z,11.73
2018-02-11T04:32:28.284Z,12.25
2018-02-11T04:33:32.276Z,11.80
2018-02-11T04:34:35.494Z,12.63
2018-02-11T04:35:38.707Z,10.60
2018-02-11T04:36:41.931Z,12.27
2018-02-11T04:37:45.920Z,11.02
2018-02-11T04:38:49.130Z,11.45
2018-02-11T04:39:52.352Z,12.50
2018-02-11T04:40:55.578Z,11.30
2018-02-11T04:41:59.573Z,12.75
2018-02-11T04:43:02.790Z,10.57
2018-02-11T04:44:06.032Z,13.68
2018-02-11T04:45:09.245Z,12.37
2018-02-11T04:46:12.457Z,11.60
2018-02-11T04:47:15.681Z,11.73
2018-02-11T04:48:18.893Z,12.80
2018-02-11T04:49:22.139Z,12.85
2018-02-11T04:50:26.885Z,12.77
2018-02-11T04:51:30.868Z,12.02
2018-02-11T04:52:34.171Z,12.00
2018-02-11T04:53:38.181Z,12.10
2018-02-11T04:54:41.412Z,12.55
2018-02-11T04:55:44.619Z,12.45
2018-02-11T04:56:48.614Z,13.75
2018-02-11T04:57:51.846Z,12.70
2018-02-11T04:58:55.050Z,11.50
2018-02-11T04:59:58.270Z,12.63
2018-02-11T05:01:02.253Z,12.00
2018-02-11T05:02:05.584Z,11.40
2018-02-11T05:03:08.820Z,13.77
2018-02-11T05:04:12.042Z,12.75
2018-02-11T05:05:15.425Z,12.25
2018-02-11T05:06:19.481Z,11.82
2018-02-11T05:07:22.676Z,11.35
2018-02-11T05:08:25.890Z,11.75
2018-02-11T05:09:29.891Z,12.57
2018-02-11T05:10:33.123Z,10.80
2018-02-11T05:11:36.356Z,12.30
2018-02-11T05:12:39.643Z,11.38
2018-02-11T05:13:42.870Z,11.52
2018-02-11T05:14:46.078Z,11.77
2018-02-11T05:15:50.066Z,11.38
2018-02-11T05:16:53.343Z,11.00
2018-02-11T05:17:56.537Z,12.65
2018-02-11T05:18:59.758Z,14.23
2018-02-11T05:20:02.982Z,12.25
2018-02-11T05:21:06.198Z,11.25
2018-02-11T05:22:09.422Z,11.35
2018-02-11T05:23:12.649Z,12.05
2018-02-11T05:24:15.869Z,10.73
2018-02-11T05:25:19.093Z,10.35
2018-02-11T05:26:22.292Z,11.48
2018-02-11T05:27:25.523Z,12.50
2018-02-11T05:28:28.753Z,12.85
2018-02-11T05:29:31.977Z,11.38
2018-02-11T05:30:35.962Z,12.10
2018-02-11T05:31:39.964Z,11.93
2018-02-11T05:32:43.161Z,10.88
2018-02-11T05:33:46.381Z,11.60
2018-02-11T05:34:49.606Z,10.80
2018-02-11T05:35:52.845Z,11.38
2018-02-11T05:36:56.151Z,11.40
2018-02-11T05:37:59.332Z,10.98
2018-02-11T05:39:02.553Z,11.23
2018-02-11T05:40:06.549Z,11.77
2018-02-11T05:41:10.561Z,10.95
2018-02-11T05:42:14.536Z,10.90
2018-02-11T05:43:17.752Z,12.65
2018-02-11T05:44:20.973Z,9.80
2018-02-11T05:45:24.186Z,10.90
2018-02-11T05:46:27.410Z,11.45
2018-02-11T05:47:30.631Z,11.52
2018-02-11T05:48:33.853Z,12.10
2018-02-11T05:49:37.854Z,10.80
2018-02-11T05:50:41.836Z,10.30
2018-02-11T05:51:45.060Z,10.52
2018-02-11T05:52:48.328Z,10.52
2018-02-11T05:53:51.536Z,10.80
2018-02-11T05:54:54.756Z,10.82
2018-02-11T05:55:58.071Z,10.80
2018-02-11T05:57:02.055Z,12.13
2018-02-11T05:58:05.257Z,11.23
2018-02-11T05:59:08.472Z,12.10
2018-02-11T06:00:11.777Z,11.05
2018-02-11T06:01:14.984Z,11.52
2018-02-11T06:02:18.964Z,11.77
2018-02-11T06:03:22.195Z,12.00
2018-02-11T06:04:25.433Z,11.80
2018-02-11T06:05:28.656Z,11.12
2018-02-11T06:06:31.868Z,13.45
2018-02-11T06:07:35.151Z,11.65
2018-02-11T06:08:38.370Z,11.07
2018-02-11T06:09:41.592Z,11.50
2018-02-11T06:10:44.821Z,11.95
2018-02-11T06:11:48.041Z,11.23
2018-02-11T06:12:52.060Z,11.27
2018-02-11T06:13:55.271Z,11.88
2018-02-11T06:14:58.495Z,10.73
2018-02-11T06:16:02.488Z,11.43
2018-02-11T06:17:05.711Z,11.00
2018-02-11T06:18:08.926Z,11.18
2018-02-11T06:19:12.143Z,11.93
2018-02-11T06:20:16.143Z,11.25
2018-02-11T06:21:19.368Z,10.55
2018-02-11T06:22:22.584Z,12.70
2018-02-11T06:23:25.813Z,10.68
2018-02-11T06:24:29.105Z,10.85
2018-02-11T06:25:32.326Z,10.65
2018-02-11T06:26:42.272Z,10.85
2018-02-11T06:27:45.488Z,10.85
2018-02-11T06:28:49.489Z,11.20
2018-02-11T06:29:53.493Z,11.38
2018-02-11T06:30:57.495Z,11.30
2018-02-11T06:32:01.496Z,11.88
2018-02-11T06:33:05.495Z,12.85
2018-02-11T06:34:09.505Z,11.85
2018-02-11T06:35:13.485Z,9.82
2018-02-11T06:36:16.700Z,12.10
2018-02-11T06:37:19.940Z,11.10
2018-02-11T06:38:23.250Z,11.00
2018-02-11T06:39:26.617Z,10.35
2018-02-11T06:40:29.838Z,12.48
2018-02-11T06:41:33.079Z,11.32
2018-02-11T06:42:36.295Z,12.25
2018-02-11T06:43:39.497Z,11.77
2018-02-11T06:44:42.711Z,11.00
2018-02-11T06:45:46.031Z,11.98
2018-02-11T06:46:50.013Z,11.80
2018-02-11T06:47:53.228Z,11.18
2018-02-11T06:48:56.433Z,12.98
2018-02-11T06:49:59.649Z,11.05
2018-02-11T06:51:02.882Z,12.10
2018-02-11T06:52:06.109Z,12.80
2018-02-11T06:53:09.327Z,11.30
2018-02-11T06:54:13.309Z,12.02
2018-02-11T06:55:17.320Z,11.65
2018-02-11T06:56:21.335Z,12.35
2018-02-11T06:57:24.624Z,11.30
2018-02-11T06:58:27.853Z,10.65
2018-02-11T06:59:31.185Z,10.93
2018-02-11T07:00:35.182Z,10.93
2018-02-11T07:01:39.159Z,11.00
2018-02-11T07:02:42.381Z,11.38
2018-02-11T07:03:45.672Z,11.45
2018-02-11T07:04:48.902Z,11.50
2018-02-11T07:05:52.129Z,10.88
2018-02-11T07:06:55.343Z,12.00
2018-02-11T07:07:58.556Z,11.55
2018-02-11T07:09:01.775Z,11.05
2018-02-11T07:10:05.011Z,11.95
2018-02-11T07:11:08.238Z,12.50
2018-02-11T07:12:12.217Z,11.35
2018-02-11T07:13:16.287Z,12.37
2018-02-11T07:14:19.477Z,11.38
2018-02-11T07:15:22.716Z,10.57
2018-02-11T07:16:25.915Z,11.50
2018-02-11T07:17:29.144Z,11.65
2018-02-11T07:18:32.377Z,11.85
2018-02-11T07:19:35.620Z,12.48
2018-02-11T07:20:38.838Z,11.30
2018-02-11T07:21:42.151Z,11.57
2018-02-11T07:22:45.332Z,11.98
2018-02-11T07:23:48.555Z,11.95
2018-02-11T07:24:52.530Z,11.25
2018-02-11T07:25:55.753Z,11.23
2018-02-11T07:26:58.970Z,9.98
2018-02-11T07:28:02.187Z,11.30
2018-02-11T07:29:06.207Z,11.85
2018-02-11T07:30:09.439Z,12.10
2018-02-11T07:31:12.662Z,11.18
2018-02-11T07:32:16.639Z,12.05
2018-02-11T07:33:19.897Z,10.57
2018-02-11T07:34:23.117Z,11.20
2018-02-11T07:35:26.449Z,10.95
2018-02-11T07:36:29.655Z,10.70
2018-02-11T07:37:32.889Z,10.98
2018-02-11T07:38:36.110Z,11.23
2018-02-11T07:39:39.318Z,10.57
2018-02-11T07:40:42.545Z,10.63
2018-02-11T07:41:45.793Z,11.10
2018-02-11T07:42:49.022Z,12.13
2018-02-11T07:43:52.294Z,10.40
2018-02-11T07:44:55.505Z,10.60
2018-02-11T07:45:58.744Z,10.95
2018-02-11T07:47:02.728Z,11.82
2018-02-11T07:48:05.958Z,10.27
2018-02-11T07:49:09.200Z,10.98
2018-02-11T07:50:12.412Z,11.70
2018-02-11T07:51:15.633Z,10.50
2018-02-11T07:52:18.868Z,11.45
2018-02-11T07:53:22.076Z,11.77
2018-02-11T07:54:25.296Z,10.75
2018-02-11T07:55:28.518Z,11.95
2018-02-11T07:56:31.749Z,10.88
2018-02-11T07:57:35.089Z,12.13
2018-02-11T07:58:38.320Z,11.00
2018-02-11T07:59:41.533Z,12.23
2018-02-11T08:00:45.533Z,12.15
2018-02-11T08:01:49.512Z,11.35
2018-02-11T08:02:52.732Z,10.80
2018-02-11T08:03:55.964Z,11.10
2018-02-11T08:04:59.173Z,11.25
2018-02-11T08:06:03.164Z,10.43
2018-02-11T08:07:06.400Z,12.18
2018-02-11T08:08:09.617Z,11.55
2018-02-11T08:09:12.848Z,11.05
2018-02-11T08:10:16.125Z,11.32
2018-02-11T08:11:20.148Z,11.02
2018-02-11T08:12:23.381Z,11.60
2018-02-11T08:13:26.611Z,11.07
2018-02-11T08:14:29.880Z,11.43
2018-02-11T08:15:33.142Z,12.25
2018-02-11T08:16:36.369Z,10.88
2018-02-11T08:17:39.596Z,11.15
2018-02-11T08:18:43.033Z,11.35
2018-02-11T08:19:46.253Z,10.02
2018-02-11T08:20:49.872Z,11.88
2018-02-11T08:21:53.850Z,10.98
2018-02-11T08:22:57.124Z,11.35
2018-02-11T08:24:00.340Z,11.20
2018-02-11T08:25:04.335Z,11.20
2018-02-11T08:26:07.540Z,11.63
2018-02-11T08:27:10.778Z,12.00
2018-02-11T08:28:14.033Z,11.35
2018-02-11T08:29:17.260Z,12.23
2018-02-11T08:30:21.267Z,11.48
2018-02-11T08:31:25.254Z,12.70
2018-02-11T08:32:28.569Z,12.05
2018-02-11T08:33:32.550Z,11.90
2018-02-11T08:34:36.568Z,10.95
2018-02-11T08:35:40.561Z,11.68
2018-02-11T08:36:44.570Z,11.63
2018-02-11T08:37:48.544Z,12.95
2018-02-11T08:38:51.859Z,11.95
2018-02-11T08:39:55.912Z,11.45
2018-02-11T08:40:59.107Z,12.25
2018-02-11T08:42:02.327Z,11.60
2018-02-11T08:43:05.554Z,11.50
2018-02-11T08:44:08.769Z,11.38
2018-02-11T08:45:11.990Z,11.18
2018-02-11T08:46:15.263Z,13.10
2018-02-11T08:47:18.472Z,11.38
2018-02-11T08:48:22.525Z,12.32
2018-02-11T08:49:26.515Z,10.57
2018-02-11T08:50:31.240Z,12.63
2018-02-11T08:51:35.220Z,11.90
2018-02-11T08:52:38.434Z,11.65
2018-02-11T08:53:42.423Z,11.93
2018-02-11T08:54:46.401Z,10.48
2018-02-11T08:55:49.641Z,11.68
2018-02-11T08:56:52.914Z,12.85
2018-02-11T08:57:56.141Z,10.93
2018-02-11T08:58:59.382Z,11.12
2018-02-11T09:00:02.656Z,11.95
2018-02-11T09:01:05.911Z,12.27
2018-02-11T09:02:09.133Z,12.80
2018-02-11T09:03:12.368Z,12.02
2018-02-11T09:04:15.589Z,11.88
2018-02-11T09:05:18.799Z,12.15
2018-02-11T09:06:22.028Z,12.85
2018-02-11T09:08:34.760Z,11.10
2018-02-11T09:09:38.764Z,12.73
2018-02-11T09:10:42.186Z,13.35
2018-02-11T09:11:45.403Z,14.23
2018-02-11T09:12:48.656Z,11.82
2018-02-11T09:13:51.846Z,13.23
2018-02-11T09:14:55.067Z,13.13
2018-02-11T09:15:59.063Z,11.65
2018-02-11T09:17:02.289Z,13.20
2018-02-11T09:18:05.545Z,13.00
2018-02-11T09:19:09.517Z,13.10
2018-02-11T09:20:12.736Z,12.80
2018-02-11T09:21:15.959Z,14.10
2018-02-11T09:22:19.176Z,12.23
2018-02-11T09:23:23.164Z,12.77
2018-02-11T09:24:26.395Z,13.80
2018-02-11T09:25:29.617Z,12.60
2018-02-11T09:26:32.898Z,12.35
2018-02-11T09:27:36.100Z,12.63
2018-02-11T09:28:39.338Z,12.90
2018-02-11T09:29:42.583Z,13.07
2018-02-11T09:30:46.594Z,13.70
2018-02-11T09:31:49.845Z,14.18
2018-02-11T09:32:53.184Z,12.35
2018-02-11T09:33:56.446Z,12.88
2018-02-11T09:34:59.683Z,13.77
2018-02-11T09:36:02.973Z,14.10
2018-02-11T09:37:06.193Z,14.90
2018-02-11T09:38:09.420Z,12.40
2018-02-11T09:39:12.636Z,13.55
2018-02-11T09:40:15.853Z,13.25
2018-02-11T09:41:19.182Z,13.10
2018-02-11T09:42:22.390Z,12.95
2018-02-11T09:43:26.383Z,13.95
2018-02-11T09:44:29.600Z,13.52
2018-02-11T09:45:32.826Z,13.25
2018-02-11T09:46:36.053Z,13.32
2018-02-11T09:47:39.288Z,13.90
2018-02-11T09:48:42.505Z,12.80
2018-02-11T09:49:46.503Z,13.07
2018-02-11T09:50:49.809Z,12.13
2018-02-11T09:51:53.049Z,13.57
2018-02-11T09:52:56.258Z,13.30
2018-02-11T09:54:00.252Z,14.10
2018-02-11T09:55:03.476Z,13.82
2018-02-11T09:56:06.690Z,14.45
2018-02-11T09:57:09.928Z,14.02
2018-02-11T09:58:13.157Z,13.60
2018-02-11T09:59:16.383Z,13.30
2018-02-11T10:00:20.380Z,13.27
2018-02-11T10:01:23.681Z,13.07
2018-02-11T10:02:26.925Z,14.05
2018-02-11T10:03:30.149Z,12.90
2018-02-11T10:04:33.398Z,12.07
2018-02-11T10:05:36.603Z,13.10
2018-02-11T10:06:39.849Z,12.75
2018-02-11T10:07:43.065Z,13.45
2018-02-11T10:08:47.048Z,13.40
2018-02-11T10:09:51.078Z,13.23
2018-02-11T10:10:54.299Z,13.20
2018-02-11T10:11:57.524Z,12.52
2018-02-11T10:13:01.516Z,12.35
2018-02-11T10:14:05.545Z,13.25
2018-02-11T10:15:08.767Z,12.68
2018-02-11T10:16:11.985Z,12.95
2018-02-11T10:17:16.056Z,13.93
2018-02-11T10:18:19.271Z,12.68
2018-02-11T10:19:22.478Z,14.65
2018-02-11T10:20:25.684Z,15.10
2018-02-11T10:21:28.922Z,13.40
2018-02-11T10:22:32.928Z,14.75
2018-02-11T10:23:36.913Z,13.77
2018-02-11T10:24:40.944Z,13.43
2018-02-11T10:25:44.182Z,14.25
2018-02-11T10:26:47.391Z,15.13
2018-02-11T10:27:51.461Z,13.62
2018-02-11T10:28:54.729Z,14.75
2018-02-11T10:29:57.958Z,17.08
2018-02-11T10:31:01.986Z,16.02
2018-02-11T10:32:05.205Z,15.25
2018-02-11T10:33:08.422Z,15.05
2018-02-11T10:34:12.418Z,14.25
2018-02-11T10:35:15.746Z,15.02
2018-02-11T10:36:18.973Z,13.77
2018-02-11T10:37:22.288Z,14.15
2018-02-11T10:38:26.294Z,14.07
2018-02-11T10:39:30.273Z,12.50
2018-02-11T10:40:34.282Z,12.98
2018-02-11T10:41:38.289Z,14.32
2018-02-11T10:42:42.287Z,14.30
2018-02-11T10:43:45.492Z,13.00
2018-02-11T10:44:48.735Z,13.62
2018-02-11T10:45:51.966Z,12.80
2018-02-11T10:46:55.183Z,13.90
2018-02-11T10:47:58.413Z,14.25
2018-02-11T10:49:01.634Z,13.10
2018-02-11T10:50:04.868Z,13.13
2018-02-11T10:51:08.843Z,14.93
2018-02-11T10:52:12.085Z,14.87
2018-02-11T10:53:15.307Z,14.07
2018-02-11T10:54:18.521Z,13.05
2018-02-11T10:55:21.761Z,15.43
2018-02-11T10:56:25.038Z,14.20
2018-02-11T10:57:28.354Z,15.05
2018-02-11T10:58:31.624Z,15.25
2018-02-11T10:59:34.901Z,13.55
2018-02-11T11:00:38.136Z,14.50
2018-02-11T11:01:41.411Z,14.30
2018-02-11T11:02:45.423Z,13.35
2018-02-11T11:03:48.664Z,14.13
2018-02-11T11:04:52.716Z,14.80
2018-02-11T11:05:56.028Z,15.43
2018-02-11T11:06:59.253Z,13.62
2018-02-11T11:08:02.545Z,13.93
2018-02-11T11:09:06.530Z,14.50
2018-02-11T11:10:10.574Z,15.48
2018-02-11T11:11:13.809Z,13.45
2018-02-11T11:12:17.818Z,11.00
2018-02-11T11:13:21.810Z,12.32
2018-02-11T11:14:25.802Z,12.45
2018-02-11T11:15:29.783Z,15.50
2018-02-11T11:16:33.109Z,15.35
2018-02-11T11:17:37.107Z,15.55
2018-02-11T11:18:41.093Z,14.20
2018-02-11T11:19:44.313Z,13.60
2018-02-11T11:20:47.561Z,13.02
2018-02-11T11:21:51.554Z,12.82
2018-02-11T11:22:54.790Z,13.88
2018-02-11T11:23:57.999Z,13.90
2018-02-11T11:25:01.221Z,13.40
2018-02-11T11:26:05.227Z,13.70
2018-02-11T11:27:09.210Z,13.07
2018-02-11T11:28:13.200Z,13.85
2018-02-11T11:29:16.481Z,11.98
2018-02-11T11:30:20.493Z,13.73
2018-02-11T11:31:24.542Z,12.02
2018-02-11T11:32:27.774Z,15.15
2018-02-11T11:33:31.030Z,14.27
2018-02-11T11:34:34.255Z,14.43
2018-02-11T11:35:38.260Z,14.35
2018-02-11T11:36:42.274Z,15.45
2018-02-11T11:37:45.513Z,15.57
2018-02-11T11:38:50.249Z,13.95
2018-02-11T11:39:54.244Z,15.05
2018-02-11T11:40:57.463Z,13.60
2018-02-11T11:42:00.709Z,15.05
2018-02-11T11:43:03.926Z,15.05
2018-02-11T11:44:07.140Z,14.65
2018-02-11T11:45:10.376Z,15.48
2018-02-11T11:46:14.384Z,14.45
2018-02-11T11:47:17.624Z,13.57
2018-02-11T11:48:20.857Z,12.52
2018-02-11T11:49:24.072Z,11.63
2018-02-11T11:50:27.305Z,13.05
2018-02-11T11:51:31.296Z,12.05
2018-02-11T11:52:35.284Z,12.82
2018-02-11T11:53:38.519Z,14.23
2018-02-11T11:54:41.728Z,14.10
2018-02-11T11:55:44.942Z,11.45
2018-02-11T11:56:48.923Z,11.75
2018-02-11T11:57:52.162Z,11.07
2018-02-11T11:58:55.409Z,16.70
2018-02-11T11:59:58.634Z,13.88
2018-02-11T12:01:01.864Z,12.50
2018-02-11T12:02:05.087Z,10.35
2018-02-11T12:03:08.311Z,11.55
2018-02-11T12:04:11.524Z,10.95
2018-02-11T12:05:15.510Z,10.23
2018-02-11T12:06:19.497Z,10.93
2018-02-11T12:07:22.718Z,10.57
2018-02-11T12:08:26.711Z,11.70
2018-02-11T12:09:30.695Z,11.95
2018-02-11T12:10:33.931Z,13.95
2018-02-11T12:11:37.158Z,10.38
2018-02-11T12:12:41.162Z,12.02
2018-02-11T12:13:44.393Z,10.73
2018-02-11T12:14:47.617Z,11.18
2018-02-11T12:15:50.988Z,11.27
2018-02-11T12:16:54.191Z,9.57
2018-02-11T12:17:57.429Z,9.50
2018-02-11T12:19:00.657Z,9.18
2018-02-11T12:20:03.868Z,9.65
2018-02-11T12:21:07.845Z,9.20
2018-02-11T12:22:11.079Z,12.35
2018-02-11T12:23:14.305Z,8.77
2018-02-11T12:24:17.618Z,9.98
2018-02-11T12:25:21.633Z,10.15
2018-02-11T12:26:24.913Z,8.75
2018-02-11T12:27:28.126Z,11.15
2018-02-11T12:28:31.352Z,12.55
2018-02-11T12:29:35.345Z,13.38
2018-02-11T12:30:38.571Z,12.77
2018-02-11T12:31:41.806Z,11.70
2018-02-11T12:32:44.995Z,10.43
2018-02-11T12:33:48.973Z,9.43
2018-02-11T12:34:52.185Z,8.32
2018-02-11T12:35:56.164Z,8.85
2018-02-11T12:36:59.367Z,7.80
2018-02-11T12:38:02.589Z,8.48
2018-02-11T12:39:05.836Z,8.88
2018-02-11T12:40:09.058Z,8.93
2018-02-11T12:41:12.281Z,8.90
2018-02-11T12:42:15.498Z,9.30
2018-02-11T12:43:18.779Z,9.50
2018-02-11T12:44:22.836Z,8.82
2018-02-11T12:45:26.062Z,8.60
2018-02-11T12:46:29.265Z,7.70
2018-02-11T12:47:32.482Z,10.88
2018-02-11T12:48:35.693Z,9.85
2018-02-11T12:49:38.901Z,8.80
2018-02-11T12:50:42.156Z,9.25
2018-02-11T12:51:46.214Z,9.07
2018-02-11T12:52:49.394Z,8.65
2018-02-11T12:53:52.779Z,8.25
2018-02-11T12:54:55.979Z,9.13
2018-02-11T12:55:59.208Z,9.68
2018-02-11T12:57:02.422Z,8.32
2018-02-11T12:58:05.652Z,9.63
2018-02-11T12:59:09.630Z,9.48
2018-02-11T13:00:12.936Z,9.77
2018-02-11T13:01:16.915Z,10.18
2018-02-11T13:02:20.122Z,12.02
2018-02-11T13:03:23.346Z,11.25
2018-02-11T13:04:26.565Z,10.10
2018-02-11T13:05:29.885Z,10.63
2018-02-11T13:06:33.109Z,10.43
2018-02-11T13:07:36.331Z,9.73
2018-02-11T13:08:40.317Z,10.45
2018-02-11T13:09:43.537Z,10.27
2018-02-11T13:10:46.764Z,11.35
2018-02-11T13:11:49.975Z,11.05
2018-02-11T13:12:53.969Z,10.93
2018-02-11T13:13:57.941Z,10.40
2018-02-11T13:15:01.172Z,11.68
2018-02-11T13:16:04.468Z,12.27
2018-02-11T13:17:07.678Z,12.45
2018-02-11T13:18:10.939Z,12.63
2018-02-11T13:19:14.884Z,12.57
2018-02-11T13:20:18.103Z,10.15
2018-02-11T13:21:21.335Z,10.27
2018-02-11T13:22:24.544Z,9.80
2018-02-11T13:23:28.538Z,11.60
2018-02-11T13:24:31.749Z,11.60
2018-02-11T13:25:35.758Z,10.20
2018-02-11T13:26:38.973Z,10.23
2018-02-11T13:27:42.194Z,10.68
2018-02-11T13:28:46.189Z,10.20
2018-02-11T13:29:49.421Z,9.50
2018-02-11T13:30:52.644Z,10.52
2018-02-11T13:31:55.913Z,10.25
2018-02-11T13:32:59.101Z,10.75
2018-02-11T13:34:02.334Z,9.93
2018-02-11T13:35:05.552Z,11.00
2018-02-11T13:36:13.752Z,10.65
2018-02-11T13:37:16.966Z,9.98
2018-02-11T13:38:20.169Z,10.55
2018-02-11T13:39:24.224Z,11.45
2018-02-11T13:40:27.510Z,10.43